Wind Spirit — C6CY9 — position and weather

sailwx.info

Track history (hours):
 
Tides and Currents Weather Stations Pressure Air Temp Water Temp Dewpoint Dewpoint Depression Visibility Wind Speed Wind Dir Waves Ship Positions

Wind Spirit

Operator: Holland America Line

Last reported at 2020-Aug-13 21:58 UTC. Time now 2020-Oct-28 05:31 UTC.
Position S 22°23' E 166°39'.
Warning: this ship's position is months out of date.

Length 134 m; draft 4.2 m.

Type: Passenger vessel. MMSI: 309056000.

Date/timePositionNaut miles runAvg speedWind from/ knotsBaromVisibWave heightAir tempDewpointWater temp
2020-Aug-13 21:58S 22°23' E 166°39'510.8
2020-Aug-13 21:30S 22°22' E 166°33'510.6
2020-Aug-13 21:00S 22°20' E 166°28'5 2.5
2020-Aug-13 18:59S 22°16' E 166°25'0 0.0
2020-Aug-13 13:30S 22°16' E 166°25'0 0.0
2020-Aug-13 13:00S 22°16' E 166°25'0 0.0
2020-Aug-13 09:59S 22°16' E 166°25'0 0.0
2020-Aug-13 08:29S 22°16' E 166°25'0 0.1
2020-Aug-13 07:26S 22°16' E 166°25'0 0.1
2020-Aug-13 06:30S 22°16' E 166°25'1 1.6
2020-Aug-13 05:59S 22°16' E 166°26'0 0.0
2020-Aug-13 04:56S 22°16' E 166°26'0 0.0
2020-Aug-13 02:59S 22°16' E 166°26'0 0.0
2020-Aug-13 02:29S 22°16' E 166°26'0 0.0
2020-Aug-13 00:29S 22°16' E 166°26'0 0.0
2020-Aug-12 22:59S 22°16' E 166°26'0 0.0
2020-Aug-12 21:29S 22°16' E 166°26'2 4.9
2020-Aug-12 21:00S 22°15' E 166°24'510.8
2020-Aug-12 20:30S 22°18' E 166°19'  
2020-Aug-04 04:48N 01°20' E 103°53'  
Track history (hours):
 
Tides and Currents Weather Stations Pressure Air Temp Water Temp Dewpoint Dewpoint Depression Visibility Wind Speed Wind Dir Waves Ship Positions

Wind Spirit

Operator: Holland America Line

Last reported at 2020-Aug-13 21:58 UTC. Time now 2020-Oct-28 05:31 UTC.
Position S 22°23' E 166°39'.
Warning: this ship's position is months out of date.

Length 134 m; draft 4.2 m.

Type: Passenger vessel. MMSI: 309056000.

Date/timePositionNaut miles runAvg speedWind from/ knotsBaromVisibWave heightAir tempDewpointWater temp
2020-Aug-13 21:58S 22°23' E 166°39'510.8
2020-Aug-13 21:30S 22°22' E 166°33'510.6
2020-Aug-13 21:00S 22°20' E 166°28'5 2.5
2020-Aug-13 18:59S 22°16' E 166°25'0 0.0
2020-Aug-13 13:30S 22°16' E 166°25'0 0.0
2020-Aug-13 13:00S 22°16' E 166°25'0 0.0
2020-Aug-13 09:59S 22°16' E 166°25'0 0.0
2020-Aug-13 08:29S 22°16' E 166°25'0 0.1
2020-Aug-13 07:26S 22°16' E 166°25'0 0.1
2020-Aug-13 06:30S 22°16' E 166°25'1 1.6
2020-Aug-13 05:59S 22°16' E 166°26'0 0.0
2020-Aug-13 04:56S 22°16' E 166°26'0 0.0
2020-Aug-13 02:59S 22°16' E 166°26'0 0.0
2020-Aug-13 02:29S 22°16' E 166°26'0 0.0
2020-Aug-13 00:29S 22°16' E 166°26'0 0.0
2020-Aug-12 22:59S 22°16' E 166°26'0 0.0
2020-Aug-12 21:29S 22°16' E 166°26'2 4.9
2020-Aug-12 21:00S 22°15' E 166°24'510.8
2020-Aug-12 20:30S 22°18' E 166°19'  
2020-Aug-04 04:48N 01°20' E 103°53'  

Dump ship's entire track history